sensor_id;sensor_type;location;lat;lon;timestamp;temperature;humidity
39345;DHT22;25061;51.954;6.996;2023-01-16T00:02:12;5.30;99.90
39345;DHT22;25061;51.954;6.996;2023-01-16T00:04:38;5.30;99.90
39345;DHT22;25061;51.954;6.996;2023-01-16T00:07:03;5.40;99.90
39345;DHT22;25061;51.954;6.996;2023-01-16T00:09:29;5.40;99.90
39345;DHT22;25061;51.954;6.996;2023-01-16T00:11:54;5.30;99.90
39345;DHT22;25061;51.954;6.996;2023-01-16T00:14:20;5.40;99.90
39345;DHT22;25061;51.954;6.996;2023-01-16T00:16:45;5.40;99.90
39345;DHT22;25061;51.954;6.996;2023-01-16T00:19:11;5.40;99.90
39345;DHT22;25061;51.954;6.996;2023-01-16T00:21:36;5.40;99.90
39345;DHT22;25061;51.954;6.996;2023-01-16T00:24:02;5.40;99.90
39345;DHT22;25061;51.954;6.996;2023-01-16T00:26:28;5.40;99.90
39345;DHT22;25061;51.954;6.996;2023-01-16T00:28:54;5.40;99.90
39345;DHT22;25061;51.954;6.996;2023-01-16T00:31:20;5.40;99.90
39345;DHT22;25061;51.954;6.996;2023-01-16T00:33:48;5.30;99.90
39345;DHT22;25061;51.954;6.996;2023-01-16T00:36:14;5.20;99.90
39345;DHT22;25061;51.954;6.996;2023-01-16T00:38:40;5.20;99.90
39345;DHT22;25061;51.954;6.996;2023-01-16T00:41:05;5.10;99.90
39345;DHT22;25061;51.954;6.996;2023-01-16T00:43:32;5.10;99.90
39345;DHT22;25061;51.954;6.996;2023-01-16T00:45:58;5.00;99.90
39345;DHT22;25061;51.954;6.996;2023-01-16T00:48:24;5.00;99.90
39345;DHT22;25061;51.954;6.996;2023-01-16T00:50:49;5.00;99.90
39345;DHT22;25061;51.954;6.996;2023-01-16T00:53:15;4.90;99.90
39345;DHT22;25061;51.954;6.996;2023-01-16T00:55:41;4.90;99.90
39345;DHT22;25061;51.954;6.996;2023-01-16T00:58:08;4.90;99.90
39345;DHT22;25061;51.954;6.996;2023-01-16T01:00:34;4.80;99.90
39345;DHT22;25061;51.954;6.996;2023-01-16T01:03:00;4.80;99.90
39345;DHT22;25061;51.954;6.996;2023-01-16T01:05:27;4.80;99.90
39345;DHT22;25061;51.954;6.996;2023-01-16T01:07:52;4.80;99.90
39345;DHT22;25061;51.954;6.996;2023-01-16T01:10:18;4.80;99.90
39345;DHT22;25061;51.954;6.996;2023-01-16T01:12:43;4.80;99.90
39345;DHT22;25061;51.954;6.996;2023-01-16T01:15:09;4.70;99.90
39345;DHT22;25061;51.954;6.996;2023-01-16T01:17:35;4.70;99.90
39345;DHT22;25061;51.954;6.996;2023-01-16T01:20:00;4.70;99.90
39345;DHT22;25061;51.954;6.996;2023-01-16T01:22:26;4.70;99.90
39345;DHT22;25061;51.954;6.996;2023-01-16T01:24:52;4.70;99.90
39345;DHT22;25061;51.954;6.996;2023-01-16T01:27:18;4.70;99.90
39345;DHT22;25061;51.954;6.996;2023-01-16T01:29:43;4.70;99.90
39345;DHT22;25061;51.954;6.996;2023-01-16T01:32:09;4.70;99.90
39345;DHT22;25061;51.954;6.996;2023-01-16T01:34:35;4.70;99.90
39345;DHT22;25061;51.954;6.996;2023-01-16T01:37:03;4.80;99.90
39345;DHT22;25061;51.954;6.996;2023-01-16T01:39:28;4.70;99.90
39345;DHT22;25061;51.954;6.996;2023-01-16T01:41:54;4.80;99.90
39345;DHT22;25061;51.954;6.996;2023-01-16T01:44:52;4.70;99.90
39345;DHT22;25061;51.954;6.996;2023-01-16T01:47:39;4.80;99.90
39345;DHT22;25061;51.954;6.996;2023-01-16T01:50:47;4.80;99.90
39345;DHT22;25061;51.954;6.996;2023-01-16T01:53:26;4.80;99.90
39345;DHT22;25061;51.954;6.996;2023-01-16T01:55:54;4.80;99.90
39345;DHT22;25061;51.954;6.996;2023-01-16T01:58:22;4.80;99.90
39345;DHT22;25061;51.954;6.996;2023-01-16T02:00:52;4.80;99.90
39345;DHT22;25061;51.954;6.996;2023-01-16T02:03:22;4.80;99.90
39345;DHT22;25061;51.954;6.996;2023-01-16T02:05:53;4.70;99.90
39345;DHT22;25061;51.954;6.996;2023-01-16T02:08:22;4.80;99.90
39345;DHT22;25061;51.954;6.996;2023-01-16T02:11:02;4.70;99.90
39345;DHT22;25061;51.954;6.996;2023-01-16T02:13:29;4.70;99.90
39345;DHT22;25061;51.954;6.996;2023-01-16T02:15:56;4.70;99.90
39345;DHT22;25061;51.954;6.996;2023-01-16T02:18:40;4.70;99.90
39345;DHT22;25061;51.954;6.996;2023-01-16T02:21:49;4.70;99.90
39345;DHT22;25061;51.954;6.996;2023-01-16T02:24:38;4.80;99.90
39345;DHT22;25061;51.954;6.996;2023-01-16T02:32:42;4.70;99.90
39345;DHT22;25061;51.954;6.996;2023-01-16T02:37:50;4.70;99.90
39345;DHT22;25061;51.954;6.996;2023-01-16T02:43:25;4.70;99.90
39345;DHT22;25061;51.954;6.996;2023-01-16T02:52:15;4.70;99.90
39345;DHT22;25061;51.954;6.996;2023-01-16T02:54:56;4.70;99.90
39345;DHT22;25061;51.954;6.996;2023-01-16T02:57:27;4.70;99.90
39345;DHT22;25061;51.954;6.996;2023-01-16T02:59:55;4.70;99.90
39345;DHT22;25061;51.954;6.996;2023-01-16T03:02:20;4.70;99.90
39345;DHT22;25061;51.954;6.996;2023-01-16T03:04:51;4.70;99.90
39345;DHT22;25061;51.954;6.996;2023-01-16T03:20:58;4.50;99.90
39345;DHT22;25061;51.954;6.996;2023-01-16T03:23:40;4.50;99.90
39345;DHT22;25061;51.954;6.996;2023-01-16T03:26:18;4.50;99.90
39345;DHT22;25061;51.954;6.996;2023-01-16T03:34:12;4.50;99.90
39345;DHT22;25061;51.954;6.996;2023-01-16T03:36:56;4.40;99.90
39345;DHT22;25061;51.954;6.996;2023-01-16T03:39:45;4.40;99.90
39345;DHT22;25061;51.954;6.996;2023-01-16T03:42:15;4.40;99.90
39345;DHT22;25061;51.954;6.996;2023-01-16T03:44:47;4.40;99.90
39345;DHT22;25061;51.954;6.996;2023-01-16T03:47:20;4.30;99.90
39345;DHT22;25061;51.954;6.996;2023-01-16T03:49:53;4.30;99.90
39345;DHT22;25061;51.954;6.996;2023-01-16T03:52:22;4.30;99.90
39345;DHT22;25061;51.954;6.996;2023-01-16T03:57:44;4.20;99.90
39345;DHT22;25061;51.954;6.996;2023-01-16T04:00:10;4.20;99.90
39345;DHT22;25061;51.954;6.996;2023-01-16T04:05:11;4.10;99.90
39345;DHT22;25061;51.954;6.996;2023-01-16T04:07:50;4.10;99.90
39345;DHT22;25061;51.954;6.996;2023-01-16T04:10:23;4.10;99.90
39345;DHT22;25061;51.954;6.996;2023-01-16T04:12:55;4.00;99.90
39345;DHT22;25061;51.954;6.996;2023-01-16T04:15:24;4.00;99.90
39345;DHT22;25061;51.954;6.996;2023-01-16T04:17:51;3.90;99.90
39345;DHT22;25061;51.954;6.996;2023-01-16T04:20:17;3.90;99.90
39345;DHT22;25061;51.954;6.996;2023-01-16T04:22:47;3.80;99.90
39345;DHT22;25061;51.954;6.996;2023-01-16T04:25:13;3.90;99.90
39345;DHT22;25061;51.954;6.996;2023-01-16T04:27:39;3.80;99.90
39345;DHT22;25061;51.954;6.996;2023-01-16T04:30:05;3.90;99.90
39345;DHT22;25061;51.954;6.996;2023-01-16T04:32:31;3.80;99.90
39345;DHT22;25061;51.954;6.996;2023-01-16T04:34:56;3.90;99.90
39345;DHT22;25061;51.954;6.996;2023-01-16T04:37:22;3.80;99.90
39345;DHT22;25061;51.954;6.996;2023-01-16T04:39:48;3.70;99.90
39345;DHT22;25061;51.954;6.996;2023-01-16T04:42:14;3.60;99.90
39345;DHT22;25061;51.954;6.996;2023-01-16T04:44:40;3.70;99.90
39345;DHT22;25061;51.954;6.996;2023-01-16T04:47:05;3.60;99.90
39345;DHT22;25061;51.954;6.996;2023-01-16T04:49:31;3.70;99.90
39345;DHT22;25061;51.954;6.996;2023-01-16T04:51:57;3.60;99.90
39345;DHT22;25061;51.954;6.996;2023-01-16T04:54:23;3.50;99.90
39345;DHT22;25061;51.954;6.996;2023-01-16T04:56:48;3.60;99.90
39345;DHT22;25061;51.954;6.996;2023-01-16T04:59:14;3.60;99.90
39345;DHT22;25061;51.954;6.996;2023-01-16T05:01:41;3.50;99.90
39345;DHT22;25061;51.954;6.996;2023-01-16T05:04:08;3.50;99.90
39345;DHT22;25061;51.954;6.996;2023-01-16T05:06:34;3.60;99.90
39345;DHT22;25061;51.954;6.996;2023-01-16T05:09:01;3.60;99.90
39345;DHT22;25061;51.954;6.996;2023-01-16T05:11:27;3.50;99.90
39345;DHT22;25061;51.954;6.996;2023-01-16T05:13:53;3.50;99.90
39345;DHT22;25061;51.954;6.996;2023-01-16T05:16:18;3.40;99.90
39345;DHT22;25061;51.954;6.996;2023-01-16T05:18:44;3.30;99.90
39345;DHT22;25061;51.954;6.996;2023-01-16T05:21:09;3.30;99.90
39345;DHT22;25061;51.954;6.996;2023-01-16T05:23:35;3.50;99.90
39345;DHT22;25061;51.954;6.996;2023-01-16T05:26:03;3.50;99.90
39345;DHT22;25061;51.954;6.996;2023-01-16T05:28:29;3.40;99.90
39345;DHT22;25061;51.954;6.996;2023-01-16T05:30:55;3.40;99.90
39345;DHT22;25061;51.954;6.996;2023-01-16T05:33:20;3.40;99.90
39345;DHT22;25061;51.954;6.996;2023-01-16T05:35:46;3.40;99.90
39345;DHT22;25061;51.954;6.996;2023-01-16T05:38:13;3.50;99.90
39345;DHT22;25061;51.954;6.996;2023-01-16T05:40:39;3.60;99.90
39345;DHT22;25061;51.954;6.996;2023-01-16T05:43:04;3.60;99.90
39345;DHT22;25061;51.954;6.996;2023-01-16T05:45:30;3.60;99.90
39345;DHT22;25061;51.954;6.996;2023-01-16T05:47:56;3.60;99.90
39345;DHT22;25061;51.954;6.996;2023-01-16T05:50:22;3.60;99.90
39345;DHT22;25061;51.954;6.996;2023-01-16T05:52:48;3.60;99.90
39345;DHT22;25061;51.954;6.996;2023-01-16T05:55:14;3.60;99.90
39345;DHT22;25061;51.954;6.996;2023-01-16T05:57:39;3.60;99.90
39345;DHT22;25061;51.954;6.996;2023-01-16T06:00:05;3.50;99.90
39345;DHT22;25061;51.954;6.996;2023-01-16T06:02:31;3.50;99.90
39345;DHT22;25061;51.954;6.996;2023-01-16T06:04:57;3.50;99.90
39345;DHT22;25061;51.954;6.996;2023-01-16T06:07:23;3.50;99.90
39345;DHT22;25061;51.954;6.996;2023-01-16T06:09:48;3.50;99.90
39345;DHT22;25061;51.954;6.996;2023-01-16T06:12:16;3.50;99.90
39345;DHT22;25061;51.954;6.996;2023-01-16T06:14:42;3.50;99.90
39345;DHT22;25061;51.954;6.996;2023-01-16T06:17:08;3.50;99.90
39345;DHT22;25061;51.954;6.996;2023-01-16T06:19:34;3.60;99.90
39345;DHT22;25061;51.954;6.996;2023-01-16T06:21:59;3.60;99.90
39345;DHT22;25061;51.954;6.996;2023-01-16T06:24:25;3.60;99.90
39345;DHT22;25061;51.954;6.996;2023-01-16T06:26:51;3.60;99.90
39345;DHT22;25061;51.954;6.996;2023-01-16T06:29:16;3.70;99.90
39345;DHT22;25061;51.954;6.996;2023-01-16T06:31:42;3.70;99.90
39345;DHT22;25061;51.954;6.996;2023-01-16T06:34:07;3.70;99.90
39345;DHT22;25061;51.954;6.996;2023-01-16T06:36:33;3.80;99.90
39345;DHT22;25061;51.954;6.996;2023-01-16T06:38:59;3.80;99.90
39345;DHT22;25061;51.954;6.996;2023-01-16T06:41:24;3.80;99.90
39345;DHT22;25061;51.954;6.996;2023-01-16T06:43:50;3.80;99.90
39345;DHT22;25061;51.954;6.996;2023-01-16T06:46:15;3.80;99.90
39345;DHT22;25061;51.954;6.996;2023-01-16T06:48:41;3.80;99.90
39345;DHT22;25061;51.954;6.996;2023-01-16T06:51:07;3.80;99.90
39345;DHT22;25061;51.954;6.996;2023-01-16T06:53:34;3.80;99.90
39345;DHT22;25061;51.954;6.996;2023-01-16T06:56:00;3.80;99.90
39345;DHT22;25061;51.954;6.996;2023-01-16T06:58:25;3.90;99.90
39345;DHT22;25061;51.954;6.996;2023-01-16T07:00:51;3.90;99.90
39345;DHT22;25061;51.954;6.996;2023-01-16T07:03:17;3.90;99.90
39345;DHT22;25061;51.954;6.996;2023-01-16T07:05:44;4.00;99.90
39345;DHT22;25061;51.954;6.996;2023-01-16T07:08:10;3.90;99.90
39345;DHT22;25061;51.954;6.996;2023-01-16T07:10:36;4.00;99.90
39345;DHT22;25061;51.954;6.996;2023-01-16T07:13:01;4.00;99.90
39345;DHT22;25061;51.954;6.996;2023-01-16T07:15:27;4.00;99.90
39345;DHT22;25061;51.954;6.996;2023-01-16T07:18:12;4.10;99.90
39345;DHT22;25061;51.954;6.996;2023-01-16T07:20:59;4.10;99.90
39345;DHT22;25061;51.954;6.996;2023-01-16T07:24:19;4.10;99.90
39345;DHT22;25061;51.954;6.996;2023-01-16T07:26:40;4.20;99.90
39345;DHT22;25061;51.954;6.996;2023-01-16T07:29:06;4.30;99.90
39345;DHT22;25061;51.954;6.996;2023-01-16T07:31:33;4.20;99.90
39345;DHT22;25061;51.954;6.996;2023-01-16T07:33:59;4.20;99.90
39345;DHT22;25061;51.954;6.996;2023-01-16T07:36:25;4.20;99.90
39345;DHT22;25061;51.954;6.996;2023-01-16T07:38:50;4.30;99.90
39345;DHT22;25061;51.954;6.996;2023-01-16T07:41:16;4.20;99.90
39345;DHT22;25061;51.954;6.996;2023-01-16T07:43:41;4.30;99.90
39345;DHT22;25061;51.954;6.996;2023-01-16T07:46:07;4.30;99.90
39345;DHT22;25061;51.954;6.996;2023-01-16T07:48:33;4.30;99.90
39345;DHT22;25061;51.954;6.996;2023-01-16T07:50:58;4.30;99.90
39345;DHT22;25061;51.954;6.996;2023-01-16T07:53:26;4.30;99.90
39345;DHT22;25061;51.954;6.996;2023-01-16T07:55:55;4.30;99.90
39345;DHT22;25061;51.954;6.996;2023-01-16T07:58:21;4.30;99.90
39345;DHT22;25061;51.954;6.996;2023-01-16T08:00:47;4.30;99.90
39345;DHT22;25061;51.954;6.996;2023-01-16T08:03:14;4.20;99.90
39345;DHT22;25061;51.954;6.996;2023-01-16T08:05:40;4.20;99.90
39345;DHT22;25061;51.954;6.996;2023-01-16T08:08:06;4.20;99.90
39345;DHT22;25061;51.954;6.996;2023-01-16T08:10:31;4.20;99.90
39345;DHT22;25061;51.954;6.996;2023-01-16T08:12:57;4.10;99.90
39345;DHT22;25061;51.954;6.996;2023-01-16T08:15:22;4.10;99.90
39345;DHT22;25061;51.954;6.996;2023-01-16T08:17:48;4.10;99.90
39345;DHT22;25061;51.954;6.996;2023-01-16T08:20:13;4.10;99.90
39345;DHT22;25061;51.954;6.996;2023-01-16T08:22:45;4.10;99.90
39345;DHT22;25061;51.954;6.996;2023-01-16T08:25:12;4.10;99.90
39345;DHT22;25061;51.954;6.996;2023-01-16T08:27:39;4.20;99.90
39345;DHT22;25061;51.954;6.996;2023-01-16T08:30:05;4.10;99.90
39345;DHT22;25061;51.954;6.996;2023-01-16T08:32:31;4.20;99.90
39345;DHT22;25061;51.954;6.996;2023-01-16T08:34:56;4.20;99.90
39345;DHT22;25061;51.954;6.996;2023-01-16T08:37:22;4.10;99.90
39345;DHT22;25061;51.954;6.996;2023-01-16T08:39:47;4.20;99.90
39345;DHT22;25061;51.954;6.996;2023-01-16T08:42:13;4.20;99.90
39345;DHT22;25061;51.954;6.996;2023-01-16T08:44:57;4.20;99.90
39345;DHT22;25061;51.954;6.996;2023-01-16T08:47:41;4.20;99.90
39345;DHT22;25061;51.954;6.996;2023-01-16T08:50:26;4.30;99.90
39345;DHT22;25061;51.954;6.996;2023-01-16T08:53:10;4.30;99.90
39345;DHT22;25061;51.954;6.996;2023-01-16T08:55:36;4.30;99.90
39345;DHT22;25061;51.954;6.996;2023-01-16T08:58:01;4.30;99.90
39345;DHT22;25061;51.954;6.996;2023-01-16T09:00:28;4.30;99.90
39345;DHT22;25061;51.954;6.996;2023-01-16T09:02:54;4.30;99.90
39345;DHT22;25061;51.954;6.996;2023-01-16T09:05:21;4.20;99.90
39345;DHT22;25061;51.954;6.996;2023-01-16T09:07:47;4.20;99.90
39345;DHT22;25061;51.954;6.996;2023-01-16T09:10:13;4.20;99.90
39345;DHT22;25061;51.954;6.996;2023-01-16T09:12:39;4.30;99.90
39345;DHT22;25061;51.954;6.996;2023-01-16T09:15:24;4.30;99.90
39345;DHT22;25061;51.954;6.996;2023-01-16T09:17:49;4.40;99.90
39345;DHT22;25061;51.954;6.996;2023-01-16T09:20:15;4.40;99.90
39345;DHT22;25061;51.954;6.996;2023-01-16T09:22:41;4.40;99.90
39345;DHT22;25061;51.954;6.996;2023-01-16T09:25:06;4.40;99.90
39345;DHT22;25061;51.954;6.996;2023-01-16T09:27:32;4.40;99.90
39345;DHT22;25061;51.954;6.996;2023-01-16T09:29:57;4.40;99.90
39345;DHT22;25061;51.954;6.996;2023-01-16T09:32:24;4.50;99.90
39345;DHT22;25061;51.954;6.996;2023-01-16T09:34:49;4.50;99.90
39345;DHT22;25061;51.954;6.996;2023-01-16T09:37:15;4.50;99.90
39345;DHT22;25061;51.954;6.996;2023-01-16T09:39:41;4.50;99.90
39345;DHT22;25061;51.954;6.996;2023-01-16T09:45:30;4.60;99.90
39345;DHT22;25061;51.954;6.996;2023-01-16T09:48:02;4.60;99.90
39345;DHT22;25061;51.954;6.996;2023-01-16T09:50:32;4.60;99.90
39345;DHT22;25061;51.954;6.996;2023-01-16T09:53:02;4.60;99.90
39345;DHT22;25061;51.954;6.996;2023-01-16T09:55:48;4.60;99.90
39345;DHT22;25061;51.954;6.996;2023-01-16T09:58:36;4.60;99.90
39345;DHT22;25061;51.954;6.996;2023-01-16T10:01:25;4.60;99.90
39345;DHT22;25061;51.954;6.996;2023-01-16T10:04:10;4.70;99.90
39345;DHT22;25061;51.954;6.996;2023-01-16T10:09:40;4.70;99.90
39345;DHT22;25061;51.954;6.996;2023-01-16T10:12:10;4.70;99.90
39345;DHT22;25061;51.954;6.996;2023-01-16T10:17:33;4.70;99.90
39345;DHT22;25061;51.954;6.996;2023-01-16T10:20:41;4.70;99.90
39345;DHT22;25061;51.954;6.996;2023-01-16T10:28:55;4.60;99.90
39345;DHT22;25061;51.954;6.996;2023-01-16T10:36:41;4.60;99.90
39345;DHT22;25061;51.954;6.996;2023-01-16T10:39:11;4.60;99.90
39345;DHT22;25061;51.954;6.996;2023-01-16T10:41:43;4.60;99.90
39345;DHT22;25061;51.954;6.996;2023-01-16T10:44:35;4.60;99.90
39345;DHT22;25061;51.954;6.996;2023-01-16T10:47:26;4.60;99.90
39345;DHT22;25061;51.954;6.996;2023-01-16T10:50:11;4.60;99.90
39345;DHT22;25061;51.954;6.996;2023-01-16T10:52:37;4.60;99.90
39345;DHT22;25061;51.954;6.996;2023-01-16T10:55:04;4.60;99.90
39345;DHT22;25061;51.954;6.996;2023-01-16T10:57:30;4.60;99.90
39345;DHT22;25061;51.954;6.996;2023-01-16T11:00:03;4.70;99.90
39345;DHT22;25061;51.954;6.996;2023-01-16T11:02:33;4.70;99.90
39345;DHT22;25061;51.954;6.996;2023-01-16T11:05:00;4.70;99.90
39345;DHT22;25061;51.954;6.996;2023-01-16T11:07:28;4.60;99.90
39345;DHT22;25061;51.954;6.996;2023-01-16T11:09:56;4.70;99.90
39345;DHT22;25061;51.954;6.996;2023-01-16T11:12:29;4.60;99.90
39345;DHT22;25061;51.954;6.996;2023-01-16T11:15:18;4.60;99.90
39345;DHT22;25061;51.954;6.996;2023-01-16T11:18:28;4.60;99.90
39345;DHT22;25061;51.954;6.996;2023-01-16T11:21:17;4.60;99.90
39345;DHT22;25061;51.954;6.996;2023-01-16T11:23:43;4.60;99.90
39345;DHT22;25061;51.954;6.996;2023-01-16T11:26:10;4.60;99.90
39345;DHT22;25061;51.954;6.996;2023-01-16T11:28:36;4.60;99.90
39345;DHT22;25061;51.954;6.996;2023-01-16T11:31:22;4.50;99.90
39345;DHT22;25061;51.954;6.996;2023-01-16T11:33:51;4.50;99.90
39345;DHT22;25061;51.954;6.996;2023-01-16T11:36:25;4.50;99.90
39345;DHT22;25061;51.954;6.996;2023-01-16T11:38:52;4.60;99.90
39345;DHT22;25061;51.954;6.996;2023-01-16T11:41:21;4.60;99.90
39345;DHT22;25061;51.954;6.996;2023-01-16T11:47:12;4.50;99.90
39345;DHT22;25061;51.954;6.996;2023-01-16T11:49:44;4.60;99.90
39345;DHT22;25061;51.954;6.996;2023-01-16T11:52:19;4.60;99.90
39345;DHT22;25061;51.954;6.996;2023-01-16T11:55:04;4.70;99.90
39345;DHT22;25061;51.954;6.996;2023-01-16T11:57:52;4.70;99.90
39345;DHT22;25061;51.954;6.996;2023-01-16T12:00:59;4.80;99.90
39345;DHT22;25061;51.954;6.996;2023-01-16T12:03:32;4.90;99.90
39345;DHT22;25061;51.954;6.996;2023-01-16T12:14:22;5.00;99.90
39345;DHT22;25061;51.954;6.996;2023-01-16T12:25:00;5.20;99.90
39345;DHT22;25061;51.954;6.996;2023-01-16T12:33:13;5.30;99.90
39345;DHT22;25061;51.954;6.996;2023-01-16T12:36:03;5.30;99.90
39345;DHT22;25061;51.954;6.996;2023-01-16T12:38:54;5.40;99.90
39345;DHT22;25061;51.954;6.996;2023-01-16T12:41:28;5.40;99.90
39345;DHT22;25061;51.954;6.996;2023-01-16T12:47:17;5.50;99.90
39345;DHT22;25061;51.954;6.996;2023-01-16T12:49:59;5.50;99.90
39345;DHT22;25061;51.954;6.996;2023-01-16T12:52:51;5.50;99.90
39345;DHT22;25061;51.954;6.996;2023-01-16T12:58:16;5.50;99.90
39345;DHT22;25061;51.954;6.996;2023-01-16T13:00:47;5.50;99.90
39345;DHT22;25061;51.954;6.996;2023-01-16T13:03:35;5.50;99.90
39345;DHT22;25061;51.954;6.996;2023-01-16T13:06:08;5.50;99.90
39345;DHT22;25061;51.954;6.996;2023-01-16T13:08:40;5.40;99.90
39345;DHT22;25061;51.954;6.996;2023-01-16T13:11:15;5.30;99.90
39345;DHT22;25061;51.954;6.996;2023-01-16T13:14:06;5.40;99.90
39345;DHT22;25061;51.954;6.996;2023-01-16T13:16:40;5.30;99.90
39345;DHT22;25061;51.954;6.996;2023-01-16T13:19:17;5.30;99.90
39345;DHT22;25061;51.954;6.996;2023-01-16T13:22:25;5.20;99.90
39345;DHT22;25061;51.954;6.996;2023-01-16T13:27:44;5.30;99.90
39345;DHT22;25061;51.954;6.996;2023-01-16T13:30:15;5.30;99.90
39345;DHT22;25061;51.954;6.996;2023-01-16T13:35:45;5.20;99.90
39345;DHT22;25061;51.954;6.996;2023-01-16T13:38:32;5.10;99.90
39345;DHT22;25061;51.954;6.996;2023-01-16T13:43:43;5.20;99.90
39345;DHT22;25061;51.954;6.996;2023-01-16T13:46:29;5.20;99.90
39345;DHT22;25061;51.954;6.996;2023-01-16T13:49:02;5.10;99.90
39345;DHT22;25061;51.954;6.996;2023-01-16T13:51:29;5.20;99.90
39345;DHT22;25061;51.954;6.996;2023-01-16T13:54:01;5.20;99.90
39345;DHT22;25061;51.954;6.996;2023-01-16T13:56:31;5.20;99.90
39345;DHT22;25061;51.954;6.996;2023-01-16T13:59:04;5.20;99.90
39345;DHT22;25061;51.954;6.996;2023-01-16T14:06:45;5.10;99.90
39345;DHT22;25061;51.954;6.996;2023-01-16T14:09:23;5.10;99.90
39345;DHT22;25061;51.954;6.996;2023-01-16T14:12:01;5.10;99.90
39345;DHT22;25061;51.954;6.996;2023-01-16T14:14:48;5.00;99.90
39345;DHT22;25061;51.954;6.996;2023-01-16T14:20:34;5.00;99.90
39345;DHT22;25061;51.954;6.996;2023-01-16T14:23:02;4.90;99.90
39345;DHT22;25061;51.954;6.996;2023-01-16T14:25:55;4.90;99.90
39345;DHT22;25061;51.954;6.996;2023-01-16T14:28:21;4.90;99.90
39345;DHT22;25061;51.954;6.996;2023-01-16T14:30:47;4.90;99.90
39345;DHT22;25061;51.954;6.996;2023-01-16T14:33:16;4.80;99.90
39345;DHT22;25061;51.954;6.996;2023-01-16T14:35:51;4.90;99.90
39345;DHT22;25061;51.954;6.996;2023-01-16T14:38:20;4.90;99.90
39345;DHT22;25061;51.954;6.996;2023-01-16T14:41:03;4.90;99.90
39345;DHT22;25061;51.954;6.996;2023-01-16T14:44:12;4.90;99.90
39345;DHT22;25061;51.954;6.996;2023-01-16T14:50:09;4.90;99.90
39345;DHT22;25061;51.954;6.996;2023-01-16T14:55:57;4.90;99.90
39345;DHT22;25061;51.954;6.996;2023-01-16T14:59:29;4.90;99.90
39345;DHT22;25061;51.954;6.996;2023-01-16T15:01:38;4.90;99.90
39345;DHT22;25061;51.954;6.996;2023-01-16T15:04:27;4.90;99.90
39345;DHT22;25061;51.954;6.996;2023-01-16T15:06:58;4.90;99.90
39345;DHT22;25061;51.954;6.996;2023-01-16T15:09:27;5.00;99.90
39345;DHT22;25061;51.954;6.996;2023-01-16T15:12:02;4.90;99.90
39345;DHT22;25061;51.954;6.996;2023-01-16T15:14:32;4.90;99.90
39345;DHT22;25061;51.954;6.996;2023-01-16T15:17:14;4.80;99.90
39345;DHT22;25061;51.954;6.996;2023-01-16T15:20:06;4.80;99.90
39345;DHT22;25061;51.954;6.996;2023-01-16T15:22:53;4.80;99.90
39345;DHT22;25061;51.954;6.996;2023-01-16T15:30:47;4.70;99.90
39345;DHT22;25061;51.954;6.996;2023-01-16T15:33:25;4.70;99.90
39345;DHT22;25061;51.954;6.996;2023-01-16T15:36:24;4.70;99.90
39345;DHT22;25061;51.954;6.996;2023-01-16T15:38:56;4.70;99.90
39345;DHT22;25061;51.954;6.996;2023-01-16T15:41:27;4.70;99.90
39345;DHT22;25061;51.954;6.996;2023-01-16T15:44:18;4.70;99.90
39345;DHT22;25061;51.954;6.996;2023-01-16T15:50:05;4.70;99.90
39345;DHT22;25061;51.954;6.996;2023-01-16T15:52:34;4.70;99.90
39345;DHT22;25061;51.954;6.996;2023-01-16T15:55:25;4.60;99.90
39345;DHT22;25061;51.954;6.996;2023-01-16T15:57:55;4.60;99.90
39345;DHT22;25061;51.954;6.996;2023-01-16T16:03:01;4.60;99.90
39345;DHT22;25061;51.954;6.996;2023-01-16T16:05:29;4.50;99.90
39345;DHT22;25061;51.954;6.996;2023-01-16T16:07:57;4.60;99.90
39345;DHT22;25061;51.954;6.996;2023-01-16T16:10:24;4.50;99.90
39345;DHT22;25061;51.954;6.996;2023-01-16T16:13:12;4.50;99.90
39345;DHT22;25061;51.954;6.996;2023-01-16T16:15:52;4.40;99.90
39345;DHT22;25061;51.954;6.996;2023-01-16T16:18:36;4.40;99.90
39345;DHT22;25061;51.954;6.996;2023-01-16T16:21:06;4.40;99.90
39345;DHT22;25061;51.954;6.996;2023-01-16T16:23:34;4.40;99.90
39345;DHT22;25061;51.954;6.996;2023-01-16T16:26:02;4.30;99.90
39345;DHT22;25061;51.954;6.996;2023-01-16T16:28:38;4.30;99.90
39345;DHT22;25061;51.954;6.996;2023-01-16T16:31:23;4.30;99.90
39345;DHT22;25061;51.954;6.996;2023-01-16T16:36:21;4.30;99.90
39345;DHT22;25061;51.954;6.996;2023-01-16T16:38:48;4.20;99.90
39345;DHT22;25061;51.954;6.996;2023-01-16T16:43:44;4.20;99.90
39345;DHT22;25061;51.954;6.996;2023-01-16T16:46:31;4.20;99.90
39345;DHT22;25061;51.954;6.996;2023-01-16T16:48:58;4.20;99.90
39345;DHT22;25061;51.954;6.996;2023-01-16T16:51:28;4.20;99.90
39345;DHT22;25061;51.954;6.996;2023-01-16T16:53:57;4.20;99.90
39345;DHT22;25061;51.954;6.996;2023-01-16T16:56:28;4.20;99.90
39345;DHT22;25061;51.954;6.996;2023-01-16T16:58:55;4.10;99.90
39345;DHT22;25061;51.954;6.996;2023-01-16T17:01:23;4.10;99.90
39345;DHT22;25061;51.954;6.996;2023-01-16T17:03:52;4.20;99.90
39345;DHT22;25061;51.954;6.996;2023-01-16T17:06:21;4.10;99.90
39345;DHT22;25061;51.954;6.996;2023-01-16T17:08:47;4.10;99.90
39345;DHT22;25061;51.954;6.996;2023-01-16T17:11:15;4.10;99.90
39345;DHT22;25061;51.954;6.996;2023-01-16T17:13:41;4.10;99.90
39345;DHT22;25061;51.954;6.996;2023-01-16T17:16:23;4.10;99.90
39345;DHT22;25061;51.954;6.996;2023-01-16T17:21:25;4.10;99.90
39345;DHT22;25061;51.954;6.996;2023-01-16T17:23:50;4.10;99.90
39345;DHT22;25061;51.954;6.996;2023-01-16T17:26:16;4.10;99.90
39345;DHT22;25061;51.954;6.996;2023-01-16T17:28:42;4.10;99.90
39345;DHT22;25061;51.954;6.996;2023-01-16T17:31:18;4.10;99.90
39345;DHT22;25061;51.954;6.996;2023-01-16T17:33:45;4.10;99.90
39345;DHT22;25061;51.954;6.996;2023-01-16T17:36:31;4.00;99.90
39345;DHT22;25061;51.954;6.996;2023-01-16T17:38:58;4.10;99.90
39345;DHT22;25061;51.954;6.996;2023-01-16T17:41:25;4.00;99.90
39345;DHT22;25061;51.954;6.996;2023-01-16T17:43:54;4.00;99.90
39345;DHT22;25061;51.954;6.996;2023-01-16T17:46:38;4.10;99.90
39345;DHT22;25061;51.954;6.996;2023-01-16T17:49:04;4.00;99.90
39345;DHT22;25061;51.954;6.996;2023-01-16T17:51:29;4.10;99.90
39345;DHT22;25061;51.954;6.996;2023-01-16T17:53:57;4.00;99.90
39345;DHT22;25061;51.954;6.996;2023-01-16T17:56:23;4.00;99.90
39345;DHT22;25061;51.954;6.996;2023-01-16T17:58:50;4.00;99.90
39345;DHT22;25061;51.954;6.996;2023-01-16T18:03:51;4.10;99.90
39345;DHT22;25061;51.954;6.996;2023-01-16T18:06:21;4.00;99.90
39345;DHT22;25061;51.954;6.996;2023-01-16T18:08:48;4.10;99.90
39345;DHT22;25061;51.954;6.996;2023-01-16T18:11:14;4.00;99.90
39345;DHT22;25061;51.954;6.996;2023-01-16T18:13:58;4.10;99.90
39345;DHT22;25061;51.954;6.996;2023-01-16T18:16:43;4.10;99.90
39345;DHT22;25061;51.954;6.996;2023-01-16T18:19:27;4.20;99.90
39345;DHT22;25061;51.954;6.996;2023-01-16T18:21:52;4.10;99.90
39345;DHT22;25061;51.954;6.996;2023-01-16T18:24:38;4.20;99.90
39345;DHT22;25061;51.954;6.996;2023-01-16T18:27:06;4.00;99.90
39345;DHT22;25061;51.954;6.996;2023-01-16T18:29:32;4.20;99.90
39345;DHT22;25061;51.954;6.996;2023-01-16T18:31:58;4.10;99.90